createdAt,value
2018-11-26T00:01:20.247Z,18.52
2018-11-26T00:03:50.416Z,18.77
2018-11-26T00:06:20.530Z,20.48
2018-11-26T00:08:50.680Z,17.00
2018-11-26T00:11:39.128Z,19.57
2018-11-26T00:14:09.238Z,19.95
2018-11-26T00:16:39.433Z,18.65
2018-11-26T00:19:09.595Z,17.82
2018-11-26T00:21:39.702Z,18.50
2018-11-26T00:24:09.809Z,18.50
2018-11-26T00:26:39.983Z,20.77
2018-11-26T00:29:10.168Z,18.60
2018-11-26T00:31:40.281Z,18.23
2018-11-26T00:34:10.495Z,20.75
2018-11-26T00:36:40.586Z,20.40
2018-11-26T00:39:12.509Z,20.00
2018-11-26T00:41:42.640Z,18.35
2018-11-26T00:44:12.804Z,18.48
2018-11-26T00:46:42.920Z,17.73
2018-11-26T00:49:13.062Z,19.57
2018-11-26T00:51:43.208Z,18.70
2018-11-26T00:54:13.337Z,16.93
2018-11-26T00:56:43.502Z,18.98
2018-11-26T00:59:13.639Z,18.75
2018-11-26T01:01:43.767Z,19.32
2018-11-26T01:04:14.082Z,18.15
2018-11-26T01:06:44.208Z,19.75
2018-11-26T01:09:14.373Z,16.17
2018-11-26T01:11:44.745Z,17.82
2018-11-26T01:14:14.941Z,17.32
2018-11-26T01:16:45.186Z,17.48
2018-11-26T01:19:15.344Z,18.02
2018-11-26T01:21:45.549Z,18.80
2018-11-26T01:24:15.681Z,17.27
2018-11-26T01:26:45.829Z,17.32
2018-11-26T01:29:15.980Z,18.52
2018-11-26T01:31:46.133Z,17.95
2018-11-26T01:34:16.300Z,17.75
2018-11-26T01:36:46.447Z,16.77
2018-11-26T01:39:16.591Z,17.52
2018-11-26T01:41:46.711Z,16.62
2018-11-26T01:44:16.807Z,16.93
2018-11-26T01:46:46.940Z,17.95
2018-11-26T01:49:17.058Z,17.37
2018-11-26T01:51:47.193Z,16.50
2018-11-26T01:54:17.312Z,17.23
2018-11-26T01:56:47.467Z,17.50
2018-11-26T01:59:17.656Z,16.12
2018-11-26T02:01:47.809Z,16.73
2018-11-26T02:04:17.960Z,16.10
2018-11-26T02:06:48.148Z,15.98
2018-11-26T02:09:18.276Z,15.20
2018-11-26T02:11:48.418Z,15.83
2018-11-26T02:14:18.519Z,14.95
2018-11-26T02:19:52.021Z,15.45
2018-11-26T02:22:22.270Z,15.95
2018-11-26T02:24:52.562Z,13.15
2018-11-26T02:27:22.620Z,14.18
2018-11-26T02:29:52.784Z,14.28
2018-11-26T02:32:22.935Z,12.88
2018-11-26T02:34:53.090Z,13.35
2018-11-26T02:37:23.288Z,12.68
2018-11-26T02:39:53.416Z,11.55
2018-11-26T02:42:23.551Z,12.93
2018-11-26T02:44:53.755Z,12.95
2018-11-26T02:47:23.926Z,12.35
2018-11-26T02:49:54.079Z,11.70
2018-11-26T02:52:24.219Z,12.18
2018-11-26T02:54:54.368Z,12.90
2018-11-26T02:57:24.528Z,13.38
2018-11-26T02:59:54.717Z,11.15
2018-11-26T03:02:24.904Z,11.83
2018-11-26T03:04:55.103Z,11.93
2018-11-26T03:07:25.262Z,11.33
2018-11-26T03:09:55.554Z,10.82
2018-11-26T03:12:25.680Z,11.60
2018-11-26T03:14:55.949Z,10.18
2018-11-26T03:17:26.152Z,11.53
2018-11-26T03:19:56.300Z,10.05
2018-11-26T03:22:26.460Z,12.10
2018-11-26T03:24:56.606Z,12.25
2018-11-26T03:27:26.733Z,12.93
2018-11-26T03:29:56.893Z,12.28
2018-11-26T03:32:27.094Z,11.35
2018-11-26T03:34:57.286Z,11.40
2018-11-26T03:37:27.411Z,11.95
2018-11-26T03:39:57.586Z,12.00
2018-11-26T03:42:27.815Z,13.38
2018-11-26T03:44:57.954Z,13.32
2018-11-26T03:47:28.232Z,13.20
2018-11-26T03:49:58.466Z,13.93
2018-11-26T03:52:28.613Z,13.32
2018-11-26T03:54:58.793Z,13.68
2018-11-26T03:57:29.047Z,14.05
2018-11-26T03:59:59.169Z,14.43
2018-11-26T04:02:29.363Z,15.18
2018-11-26T04:04:59.524Z,13.55
2018-11-26T04:07:29.668Z,14.60
2018-11-26T04:09:59.879Z,16.90
2018-11-26T04:12:31.123Z,15.13
2018-11-26T04:15:01.227Z,14.60
2018-11-26T04:17:31.384Z,14.50
2018-11-26T04:20:01.514Z,15.15
2018-11-26T04:22:31.691Z,15.78
2018-11-26T04:25:01.942Z,17.12
2018-11-26T04:27:32.137Z,15.43
2018-11-26T04:30:02.301Z,14.55
2018-11-26T04:32:32.415Z,14.90
2018-11-26T04:35:02.543Z,14.43
2018-11-26T04:37:32.671Z,14.50
2018-11-26T04:40:02.978Z,16.30
2018-11-26T04:42:33.110Z,15.23
2018-11-26T04:45:03.270Z,14.47
2018-11-26T04:47:33.427Z,15.32
2018-11-26T04:50:03.542Z,14.18
2018-11-26T04:52:33.672Z,15.50
2018-11-26T04:55:03.933Z,16.32
2018-11-26T04:57:34.226Z,15.40
2018-11-26T05:00:05.505Z,17.82
2018-11-26T05:02:35.694Z,16.17
2018-11-26T05:05:06.515Z,16.42
2018-11-26T05:07:36.676Z,17.35
2018-11-26T05:10:09.172Z,15.90
2018-11-26T05:12:39.359Z,16.05
2018-11-26T05:15:14.053Z,15.65
2018-11-26T05:17:44.202Z,16.73
2018-11-26T05:20:15.010Z,17.02
2018-11-26T05:22:45.132Z,15.40
2018-11-26T05:25:15.248Z,15.88
2018-11-26T05:27:45.344Z,15.68
2018-11-26T05:30:15.565Z,16.07
2018-11-26T05:32:45.752Z,15.15
2018-11-26T05:35:16.792Z,16.50
2018-11-26T05:37:46.852Z,16.70
2018-11-26T05:40:17.052Z,14.95
2018-11-26T05:42:47.200Z,15.95
2018-11-26T05:45:17.741Z,15.10
2018-11-26T05:47:48.363Z,14.05
2018-11-26T05:50:18.604Z,16.27
2018-11-26T05:52:48.785Z,15.83
2018-11-26T05:55:19.006Z,15.25
2018-11-26T05:57:49.170Z,15.98
2018-11-26T06:03:11.512Z,15.83
2018-11-26T06:05:41.656Z,16.37
2018-11-26T06:08:11.892Z,16.00
2018-11-26T06:10:42.051Z,17.52
2018-11-26T06:13:12.266Z,16.32
2018-11-26T06:15:42.514Z,15.93
2018-11-26T06:18:12.876Z,16.67
2018-11-26T06:20:43.048Z,16.52
2018-11-26T06:23:13.522Z,17.45
2018-11-26T06:25:43.814Z,16.40
2018-11-26T06:28:14.094Z,16.80
2018-11-26T06:30:44.328Z,16.07
2018-11-26T06:33:14.560Z,15.15
2018-11-26T06:35:44.934Z,17.70
2018-11-26T06:38:15.180Z,15.88
2018-11-26T06:40:45.319Z,16.25
2018-11-26T06:43:15.622Z,17.25
2018-11-26T06:45:45.793Z,18.17
2018-11-26T06:48:15.951Z,18.23
2018-11-26T06:50:46.276Z,18.25
2018-11-26T06:53:23.424Z,17.20
2018-11-26T06:55:53.673Z,17.27
2018-11-26T06:58:23.830Z,17.92
2018-11-26T07:00:54.611Z,17.05
2018-11-26T07:03:24.719Z,17.12
2018-11-26T07:05:54.945Z,18.37
2018-11-26T07:08:25.085Z,17.73
2018-11-26T07:10:55.513Z,19.95
2018-11-26T07:13:25.741Z,17.77
2018-11-26T07:15:56.011Z,19.82
2018-11-26T07:18:26.220Z,20.25
2018-11-26T07:20:56.497Z,19.10
2018-11-26T07:23:26.756Z,18.20
2018-11-26T07:25:56.913Z,18.20
2018-11-26T07:28:27.153Z,19.00
2018-11-26T07:30:57.356Z,19.02
2018-11-26T07:33:27.569Z,19.37
2018-11-26T07:35:57.665Z,16.60
2018-11-26T07:38:27.805Z,16.60
2018-11-26T07:40:58.045Z,16.80
2018-11-26T07:43:28.247Z,20.52
2018-11-26T07:45:58.409Z,19.65
2018-11-26T07:48:28.544Z,19.73
2018-11-26T07:50:58.773Z,18.15
2018-11-26T07:53:28.946Z,17.67
2018-11-26T07:55:59.133Z,17.07
2018-11-26T07:58:29.257Z,18.07
2018-11-26T08:00:59.460Z,18.77
2018-11-26T08:03:29.583Z,18.92
2018-11-26T08:05:59.780Z,18.25
2018-11-26T08:08:29.977Z,18.00
2018-11-26T08:11:00.166Z,16.55
2018-11-26T08:13:30.342Z,18.45
2018-11-26T08:16:01.046Z,17.15
2018-11-26T08:18:31.166Z,17.57
2018-11-26T08:21:01.269Z,17.48
2018-11-26T08:23:31.416Z,18.60
2018-11-26T08:26:01.580Z,16.10
2018-11-26T08:28:31.683Z,16.00
2018-11-26T08:31:01.824Z,17.55
2018-11-26T08:33:32.023Z,17.50
2018-11-26T08:36:23.222Z,17.75
2018-11-26T08:38:58.775Z,15.70
2018-11-26T08:41:34.098Z,16.30
2018-11-26T08:44:09.787Z,18.42
2018-11-26T08:46:44.884Z,19.27
2018-11-26T08:49:22.937Z,19.05
2018-11-26T08:51:53.131Z,18.25
2018-11-26T08:54:23.421Z,17.10
2018-11-26T08:56:53.554Z,19.57
2018-11-26T08:59:23.708Z,17.60
2018-11-26T09:01:59.294Z,19.92
2018-11-26T09:04:34.400Z,18.67
2018-11-26T09:07:04.762Z,19.42
2018-11-26T09:09:34.849Z,18.98
2018-11-26T09:12:05.733Z,19.05
2018-11-26T09:14:35.846Z,18.65
2018-11-26T09:17:06.007Z,17.62
2018-11-26T09:19:36.128Z,18.05
2018-11-26T09:22:06.690Z,19.05
2018-11-26T09:24:36.835Z,19.30
2018-11-26T09:27:09.952Z,19.45
2018-11-26T09:29:37.327Z,19.17
2018-11-26T09:32:07.995Z,19.70
2018-11-26T09:34:38.220Z,19.25
2018-11-26T09:37:08.408Z,19.95
2018-11-26T09:39:38.540Z,16.35
2018-11-26T09:42:08.720Z,20.62
2018-11-26T09:44:38.843Z,18.07
2018-11-26T09:47:09.008Z,20.72
2018-11-26T09:49:39.194Z,19.73
2018-11-26T09:52:09.385Z,19.30
2018-11-26T09:54:39.492Z,18.95
2018-11-26T09:57:09.605Z,18.82
2018-11-26T09:59:39.793Z,19.90
2018-11-26T10:02:09.956Z,17.75
2018-11-26T10:04:40.079Z,18.65
2018-11-26T10:07:10.263Z,19.45
2018-11-26T10:09:40.476Z,17.55
2018-11-26T10:12:10.648Z,17.98
2018-11-26T10:14:40.945Z,18.20
2018-11-26T10:17:11.173Z,17.37
2018-11-26T10:19:41.453Z,18.17
2018-11-26T10:22:11.738Z,18.25
2018-11-26T10:24:41.986Z,19.70
2018-11-26T10:27:12.133Z,19.80
2018-11-26T10:29:42.446Z,20.45
2018-11-26T10:32:12.657Z,18.17
2018-11-26T10:34:42.777Z,18.17
2018-11-26T10:37:12.992Z,19.92
2018-11-26T10:39:44.079Z,18.32
2018-11-26T10:42:14.295Z,20.57
2018-11-26T10:44:44.440Z,17.75
2018-11-26T10:47:14.621Z,18.17
2018-11-26T10:49:44.756Z,16.55
2018-11-26T10:52:14.977Z,19.80
2018-11-26T10:54:45.488Z,18.25
2018-11-26T10:57:15.685Z,19.80
2018-11-26T10:59:45.824Z,19.12
2018-11-26T11:02:21.107Z,20.70
2018-11-26T11:04:51.265Z,22.73
2018-11-26T11:07:21.460Z,20.48
2018-11-26T11:09:51.604Z,18.70
2018-11-26T11:12:21.802Z,18.45
2018-11-26T11:14:51.942Z,20.55
2018-11-26T11:17:22.169Z,20.20
2018-11-26T11:19:52.841Z,20.70
2018-11-26T11:22:22.984Z,22.13
2018-11-26T11:24:53.157Z,19.92
2018-11-26T11:27:23.337Z,22.15
2018-11-26T11:29:53.481Z,20.25
2018-11-26T11:32:23.599Z,22.50
2018-11-26T11:34:53.757Z,19.07
2018-11-26T11:37:23.961Z,20.62
2018-11-26T11:39:54.096Z,21.10
2018-11-26T11:42:24.316Z,21.57
2018-11-26T11:44:54.466Z,19.55
2018-11-26T11:47:24.655Z,20.12
2018-11-26T11:49:55.530Z,22.02
2018-11-26T11:52:25.656Z,20.65
2018-11-26T11:54:55.857Z,23.57
2018-11-26T11:57:26.063Z,20.95
2018-11-26T11:59:56.283Z,22.93
2018-11-26T12:02:26.458Z,21.87
2018-11-26T12:04:56.641Z,19.35
2018-11-26T12:07:26.857Z,22.60
2018-11-26T12:09:57.082Z,22.00
2018-11-26T12:12:27.265Z,23.75
2018-11-26T12:14:57.488Z,26.60
2018-11-26T12:17:27.726Z,27.82
2018-11-26T12:19:57.867Z,25.65
2018-11-26T12:22:27.980Z,26.93
2018-11-26T12:24:58.149Z,26.65
2018-11-26T12:27:28.340Z,25.65
2018-11-26T12:29:58.441Z,24.05
2018-11-26T12:32:28.611Z,25.27
2018-11-26T12:34:58.761Z,23.95
2018-11-26T12:37:28.940Z,23.00
2018-11-26T12:39:59.173Z,25.32
2018-11-26T12:42:29.384Z,25.35
2018-11-26T12:44:59.519Z,24.60
2018-11-26T12:47:29.735Z,24.35
2018-11-26T12:49:59.903Z,23.52
2018-11-26T12:52:30.126Z,22.82
2018-11-26T12:55:00.316Z,24.65
2018-11-26T12:57:30.438Z,23.50
2018-11-26T13:00:00.584Z,24.87
2018-11-26T13:02:30.741Z,24.45
2018-11-26T13:05:00.899Z,25.02
2018-11-26T13:07:31.064Z,23.95
2018-11-26T13:10:01.186Z,22.67
2018-11-26T13:12:31.370Z,25.92
2018-11-26T13:15:01.509Z,25.43
2018-11-26T13:17:31.768Z,24.02
2018-11-26T13:20:01.922Z,24.75
2018-11-26T13:22:32.075Z,23.87
2018-11-26T13:25:02.221Z,26.30
2018-11-26T13:27:32.395Z,25.10
2018-11-26T13:30:02.610Z,24.77
2018-11-26T13:32:32.717Z,24.35
2018-11-26T13:35:02.846Z,22.82
2018-11-26T13:37:33.050Z,24.10
2018-11-26T13:40:03.158Z,24.32
2018-11-26T13:42:33.307Z,24.27
2018-11-26T13:45:03.524Z,22.87
2018-11-26T13:47:33.748Z,24.07
2018-11-26T13:50:04.057Z,25.27
2018-11-26T13:52:34.330Z,24.55
2018-11-26T13:55:04.862Z,25.55
2018-11-26T13:57:35.144Z,25.25
2018-11-26T14:00:07.975Z,22.82
2018-11-26T14:02:38.138Z,26.25
2018-11-26T14:05:12.620Z,23.55
2018-11-26T14:07:42.847Z,23.40
2018-11-26T14:10:17.579Z,23.22
2018-11-26T14:12:52.981Z,22.77
2018-11-26T14:15:23.223Z,23.25
2018-11-26T14:17:53.516Z,25.52
2018-11-26T14:20:23.686Z,23.27
2018-11-26T14:22:54.013Z,23.15
2018-11-26T14:25:24.244Z,22.02
2018-11-26T14:27:54.614Z,22.25
2018-11-26T14:30:27.489Z,19.50
2018-11-26T14:32:57.918Z,19.45
2018-11-26T14:35:28.213Z,20.30
2018-11-26T14:38:05.648Z,19.15
2018-11-26T14:40:44.847Z,17.05
2018-11-26T14:43:15.204Z,17.05
2018-11-26T14:45:45.496Z,16.02
2018-11-26T14:48:15.698Z,19.12
2018-11-26T14:50:45.920Z,18.45
2018-11-26T14:53:17.529Z,17.62
2018-11-26T14:55:47.918Z,17.55
2018-11-26T14:58:18.105Z,18.87
2018-11-26T15:00:48.695Z,18.20
2018-11-26T15:03:19.045Z,18.32
2018-11-26T15:05:49.329Z,20.72
2018-11-26T15:08:19.754Z,19.73
2018-11-26T15:10:50.062Z,16.27
2018-11-26T15:13:20.247Z,19.17
2018-11-26T15:15:50.363Z,20.02
2018-11-26T15:18:20.670Z,21.02
2018-11-26T15:20:51.002Z,20.32
2018-11-26T15:23:21.230Z,19.62
2018-11-26T15:25:51.832Z,19.45
2018-11-26T15:28:22.148Z,18.48
2018-11-26T15:30:52.320Z,18.87
2018-11-26T15:33:22.601Z,22.37
2018-11-26T15:35:52.855Z,20.68
2018-11-26T15:38:23.072Z,22.13
2018-11-26T15:40:53.390Z,20.82
2018-11-26T15:43:23.584Z,19.48
2018-11-26T15:45:53.945Z,19.25
2018-11-26T15:48:24.234Z,18.65
2018-11-26T15:50:54.506Z,18.85
2018-11-26T15:53:25.436Z,17.17
2018-11-26T15:55:56.357Z,17.12
2018-11-26T15:58:26.554Z,15.15
2018-11-26T16:00:56.821Z,16.02
2018-11-26T16:03:27.282Z,16.05
2018-11-26T16:05:57.931Z,18.90
2018-11-26T16:08:28.355Z,16.30
2018-11-26T16:10:58.581Z,15.98
2018-11-26T16:13:28.843Z,17.65
2018-11-26T16:15:58.917Z,16.12
2018-11-26T16:18:29.182Z,17.45
2018-11-26T16:20:59.472Z,16.65
2018-11-26T16:23:29.876Z,16.60
2018-11-26T16:26:00.118Z,16.20
2018-11-26T16:28:30.322Z,15.03
2018-11-26T16:31:00.484Z,15.90
2018-11-26T16:33:31.512Z,17.95
2018-11-26T16:36:01.762Z,16.77
2018-11-26T16:38:31.990Z,16.00
2018-11-26T16:41:02.240Z,15.00
2018-11-26T16:43:32.475Z,14.47
2018-11-26T16:46:02.635Z,15.08
2018-11-26T16:48:33.306Z,16.40
2018-11-26T16:51:03.471Z,17.40
2018-11-26T16:53:33.776Z,15.78
2018-11-26T16:56:03.922Z,16.77
2018-11-26T16:58:34.173Z,17.05
2018-11-26T17:01:04.321Z,15.72
2018-11-26T17:03:34.683Z,16.17
2018-11-26T17:06:05.175Z,16.62
2018-11-26T17:08:35.423Z,15.13
2018-11-26T17:11:05.602Z,16.05
2018-11-26T17:13:35.838Z,16.35
2018-11-26T17:16:06.111Z,16.30
2018-11-26T17:18:36.317Z,18.50
2018-11-26T17:21:06.980Z,17.48
2018-11-26T17:23:37.180Z,16.85
2018-11-26T17:26:07.374Z,17.75
2018-11-26T17:28:37.463Z,19.10
2018-11-26T17:31:07.829Z,17.10
2018-11-26T17:33:37.969Z,15.85
2018-11-26T17:36:08.068Z,18.92
2018-11-26T17:38:38.347Z,18.23
2018-11-26T17:41:08.526Z,17.00
2018-11-26T17:43:38.638Z,17.70
2018-11-26T17:46:08.817Z,21.50
2018-11-26T17:48:38.927Z,16.32
2018-11-26T17:51:09.091Z,17.65
2018-11-26T17:53:39.225Z,17.20
2018-11-26T17:56:09.389Z,19.55
2018-11-26T17:58:39.563Z,19.67
2018-11-26T18:01:20.100Z,20.12
2018-11-26T18:03:50.295Z,19.48
2018-11-26T18:06:20.503Z,21.07
2018-11-26T18:08:50.676Z,20.55
2018-11-26T18:11:20.901Z,21.15
2018-11-26T18:13:51.357Z,20.30
2018-11-26T18:16:22.033Z,21.37
2018-11-26T18:18:52.414Z,21.70
2018-11-26T18:21:22.720Z,21.20
2018-11-26T18:23:53.014Z,20.48
2018-11-26T18:26:23.226Z,21.02
2018-11-26T18:28:53.472Z,18.02
2018-11-26T18:31:23.625Z,19.75
2018-11-26T18:33:53.822Z,18.60
2018-11-26T18:36:24.050Z,19.02
2018-11-26T18:38:54.259Z,18.87
2018-11-26T18:41:24.475Z,20.80
2018-11-26T18:43:54.718Z,20.08
2018-11-26T18:46:25.160Z,20.65
2018-11-26T18:48:55.495Z,20.40
2018-11-26T18:51:25.656Z,22.87
2018-11-26T18:53:55.825Z,23.38
2018-11-26T18:56:25.970Z,20.80
2018-11-26T18:58:56.199Z,20.12
2018-11-26T19:01:26.361Z,20.02
2018-11-26T19:03:56.511Z,20.27
2018-11-26T19:06:26.670Z,18.40
2018-11-26T19:08:56.812Z,16.35
2018-11-26T19:11:27.030Z,19.23
2018-11-26T19:14:07.070Z,18.48
2018-11-26T19:16:42.483Z,18.17
2018-11-26T19:19:12.712Z,17.67
2018-11-26T19:21:42.866Z,18.42
2018-11-26T19:24:13.102Z,18.55
2018-11-26T19:26:43.649Z,18.15
2018-11-26T19:29:13.881Z,17.57
2018-11-26T19:31:44.592Z,17.55
2018-11-26T19:34:14.798Z,18.85
2018-11-26T19:36:44.979Z,17.15
2018-11-26T19:39:15.399Z,18.32
2018-11-26T19:41:45.571Z,18.77
2018-11-26T19:44:15.723Z,18.80
2018-11-26T19:46:45.860Z,21.65
2018-11-26T19:49:16.029Z,20.37
2018-11-26T19:51:46.252Z,19.55
2018-11-26T19:54:16.472Z,19.90
2018-11-26T19:56:46.695Z,22.95
2018-11-26T19:59:16.978Z,20.00
2018-11-26T20:01:47.148Z,23.32
2018-11-26T20:04:30.281Z,23.47
2018-11-26T20:07:00.521Z,21.20
2018-11-26T20:09:30.663Z,21.90
2018-11-26T20:12:00.892Z,20.90
2018-11-26T20:14:31.023Z,20.25
2018-11-26T20:17:01.263Z,21.10
2018-11-26T20:19:31.498Z,20.48
2018-11-26T20:22:01.849Z,21.10
2018-11-26T20:24:31.988Z,22.37
2018-11-26T20:27:02.236Z,21.65
2018-11-26T20:29:32.441Z,19.80
2018-11-26T20:32:02.692Z,22.42
2018-11-26T20:34:32.956Z,21.00
2018-11-26T20:37:03.181Z,21.68
2018-11-26T20:39:33.343Z,22.00
2018-11-26T20:42:03.499Z,21.10
2018-11-26T20:44:33.718Z,23.65
2018-11-26T20:47:03.866Z,24.47
2018-11-26T20:49:34.034Z,24.07
2018-11-26T20:52:04.292Z,23.20
2018-11-26T20:54:34.611Z,23.92
2018-11-26T20:57:04.740Z,23.45
2018-11-26T20:59:34.965Z,22.75
2018-11-26T21:02:05.174Z,24.00
2018-11-26T21:04:35.349Z,22.77
2018-11-26T21:07:06.106Z,21.30
2018-11-26T21:09:36.392Z,23.27
2018-11-26T21:12:06.671Z,23.10
2018-11-26T21:14:36.874Z,20.88
2018-11-26T21:17:07.348Z,21.55
2018-11-26T21:19:37.652Z,23.10
2018-11-26T21:22:07.824Z,20.77
2018-11-26T21:24:38.171Z,22.25
2018-11-26T21:27:08.411Z,22.70
2018-11-26T21:29:38.612Z,21.48
2018-11-26T21:32:08.834Z,21.57
2018-11-26T21:34:39.698Z,21.93
2018-11-26T21:37:09.841Z,22.73
2018-11-26T21:39:40.009Z,22.95
2018-11-26T21:42:10.241Z,23.05
2018-11-26T21:44:40.521Z,22.25
2018-11-26T21:47:10.680Z,22.80
2018-11-26T21:49:40.876Z,21.60
2018-11-26T21:52:11.104Z,22.05
2018-11-26T21:54:41.337Z,21.55
2018-11-26T21:57:11.523Z,22.65
2018-11-26T21:59:41.751Z,21.33
2018-11-26T22:02:12.023Z,23.27
2018-11-26T22:04:42.201Z,21.70
2018-11-26T22:07:12.522Z,21.80
2018-11-26T22:09:42.731Z,22.93
2018-11-26T22:12:12.929Z,21.55
2018-11-26T22:14:43.150Z,20.45
2018-11-26T22:17:13.351Z,18.87
2018-11-26T22:19:43.521Z,22.30
2018-11-26T22:22:13.713Z,21.95
2018-11-26T22:24:43.914Z,22.40
2018-11-26T22:27:14.117Z,23.22
2018-11-26T22:29:44.359Z,24.67
2018-11-26T22:32:14.555Z,20.70
2018-11-26T22:34:44.779Z,23.55
2018-11-26T22:37:14.900Z,23.40
2018-11-26T22:39:45.149Z,25.00
2018-11-26T22:42:15.269Z,25.75
2018-11-26T22:44:45.439Z,23.38
2018-11-26T22:47:15.689Z,24.95
2018-11-26T22:49:45.935Z,22.62
2018-11-26T22:52:16.104Z,23.62
2018-11-26T22:54:46.321Z,24.10
2018-11-26T22:57:16.573Z,25.50
2018-11-26T22:59:46.701Z,24.55
2018-11-26T23:02:17.049Z,23.95
2018-11-26T23:04:47.220Z,23.27
2018-11-26T23:07:17.511Z,24.10
2018-11-26T23:09:47.770Z,22.07
2018-11-26T23:12:18.033Z,24.90
2018-11-26T23:14:48.285Z,23.67
2018-11-26T23:17:18.541Z,23.20
2018-11-26T23:19:48.869Z,24.65
2018-11-26T23:22:19.002Z,23.70
2018-11-26T23:24:49.310Z,25.00
2018-11-26T23:27:19.575Z,24.15
2018-11-26T23:29:49.794Z,24.15
2018-11-26T23:32:20.241Z,24.23
2018-11-26T23:34:50.469Z,21.30
2018-11-26T23:37:20.709Z,23.85
2018-11-26T23:39:50.849Z,23.92
2018-11-26T23:42:20.997Z,24.35
2018-11-26T23:44:51.259Z,21.70
2018-11-26T23:47:21.399Z,24.90
2018-11-26T23:49:51.515Z,22.40
2018-11-26T23:52:21.765Z,25.50
2018-11-26T23:54:51.937Z,24.80
2018-11-26T23:57:22.075Z,23.65
2018-11-26T23:59:52.289Z,24.43
